sensor_id;sensor_type;location;lat;lon;timestamp;P1;durP1;ratioP1;P2;durP2;ratioP2
3293;SDS011;1659;51.470;6.770;2022-08-01T00:01:24;19.27;;;11.70;;
3293;SDS011;1659;51.470;6.770;2022-08-01T00:03:51;15.33;;;10.13;;
3293;SDS011;1659;51.470;6.770;2022-08-01T00:06:17;17.47;;;12.10;;
3293;SDS011;1659;51.470;6.770;2022-08-01T00:08:44;20.40;;;11.17;;
3293;SDS011;1659;51.470;6.770;2022-08-01T00:11:10;18.67;;;12.00;;
3293;SDS011;1659;51.470;6.770;2022-08-01T00:13:38;17.70;;;10.87;;
3293;SDS011;1659;51.470;6.770;2022-08-01T00:16:05;17.83;;;12.13;;
3293;SDS011;1659;51.470;6.770;2022-08-01T00:18:32;20.60;;;12.33;;
3293;SDS011;1659;51.470;6.770;2022-08-01T00:20:59;20.47;;;12.83;;
3293;SDS011;1659;51.470;6.770;2022-08-01T00:23:26;21.53;;;11.80;;
3293;SDS011;1659;51.470;6.770;2022-08-01T00:25:52;17.67;;;11.80;;
3293;SDS011;1659;51.470;6.770;2022-08-01T00:28:19;21.57;;;12.43;;
3293;SDS011;1659;51.470;6.770;2022-08-01T00:30:47;18.67;;;12.27;;
3293;SDS011;1659;51.470;6.770;2022-08-01T00:33:14;19.17;;;12.00;;
3293;SDS011;1659;51.470;6.770;2022-08-01T00:35:40;25.77;;;14.13;;
3293;SDS011;1659;51.470;6.770;2022-08-01T00:38:07;17.60;;;12.23;;
3293;SDS011;1659;51.470;6.770;2022-08-01T00:40:33;20.53;;;12.93;;
3293;SDS011;1659;51.470;6.770;2022-08-01T00:43:00;31.23;;;14.90;;
3293;SDS011;1659;51.470;6.770;2022-08-01T00:45:26;22.10;;;13.13;;
3293;SDS011;1659;51.470;6.770;2022-08-01T00:47:54;20.23;;;13.30;;
3293;SDS011;1659;51.470;6.770;2022-08-01T00:50:21;25.43;;;14.07;;
3293;SDS011;1659;51.470;6.770;2022-08-01T00:52:48;18.60;;;12.30;;
3293;SDS011;1659;51.470;6.770;2022-08-01T00:55:16;27.93;;;12.60;;
3293;SDS011;1659;51.470;6.770;2022-08-01T00:57:44;23.10;;;12.30;;
3293;SDS011;1659;51.470;6.770;2022-08-01T01:00:11;23.30;;;14.10;;
3293;SDS011;1659;51.470;6.770;2022-08-01T01:02:39;18.13;;;12.10;;
3293;SDS011;1659;51.470;6.770;2022-08-01T01:05:07;19.43;;;13.43;;
3293;SDS011;1659;51.470;6.770;2022-08-01T01:07:36;27.00;;;14.33;;
3293;SDS011;1659;51.470;6.770;2022-08-01T01:10:12;23.60;;;13.87;;
3293;SDS011;1659;51.470;6.770;2022-08-01T01:12:44;28.70;;;15.07;;
3293;SDS011;1659;51.470;6.770;2022-08-01T01:15:18;25.13;;;14.33;;
3293;SDS011;1659;51.470;6.770;2022-08-01T01:17:51;24.57;;;15.00;;
3293;SDS011;1659;51.470;6.770;2022-08-01T01:20:23;20.93;;;12.73;;
3293;SDS011;1659;51.470;6.770;2022-08-01T01:23:10;26.63;;;14.80;;
3293;SDS011;1659;51.470;6.770;2022-08-01T01:25:53;18.87;;;11.90;;
3293;SDS011;1659;51.470;6.770;2022-08-01T01:28:30;28.13;;;12.93;;
3293;SDS011;1659;51.470;6.770;2022-08-01T01:31:01;21.20;;;12.90;;
3293;SDS011;1659;51.470;6.770;2022-08-01T01:33:29;27.00;;;14.83;;
3293;SDS011;1659;51.470;6.770;2022-08-01T01:35:58;25.90;;;14.30;;
3293;SDS011;1659;51.470;6.770;2022-08-01T01:38:28;21.60;;;11.80;;
3293;SDS011;1659;51.470;6.770;2022-08-01T01:41:00;31.37;;;15.17;;
3293;SDS011;1659;51.470;6.770;2022-08-01T01:43:28;18.30;;;12.70;;
3293;SDS011;1659;51.470;6.770;2022-08-01T01:45:56;23.63;;;13.20;;
3293;SDS011;1659;51.470;6.770;2022-08-01T01:48:24;24.43;;;13.97;;
3293;SDS011;1659;51.470;6.770;2022-08-01T01:50:52;22.67;;;13.17;;
3293;SDS011;1659;51.470;6.770;2022-08-01T01:53:20;23.07;;;11.90;;
3293;SDS011;1659;51.470;6.770;2022-08-01T01:55:49;25.50;;;13.13;;
3293;SDS011;1659;51.470;6.770;2022-08-01T01:58:19;25.53;;;13.60;;
3293;SDS011;1659;51.470;6.770;2022-08-01T02:00:46;25.47;;;14.83;;
3293;SDS011;1659;51.470;6.770;2022-08-01T02:03:16;30.93;;;14.40;;
3293;SDS011;1659;51.470;6.770;2022-08-01T02:05:46;20.20;;;13.17;;
3293;SDS011;1659;51.470;6.770;2022-08-01T02:08:14;24.97;;;14.63;;
3293;SDS011;1659;51.470;6.770;2022-08-01T02:10:42;22.80;;;13.83;;
3293;SDS011;1659;51.470;6.770;2022-08-01T02:13:32;24.63;;;14.37;;
3293;SDS011;1659;51.470;6.770;2022-08-01T02:16:01;26.90;;;15.73;;
3293;SDS011;1659;51.470;6.770;2022-08-01T02:18:29;29.20;;;15.40;;
3293;SDS011;1659;51.470;6.770;2022-08-01T02:20:57;28.50;;;14.70;;
3293;SDS011;1659;51.470;6.770;2022-08-01T02:23:27;29.63;;;14.80;;
3293;SDS011;1659;51.470;6.770;2022-08-01T02:25:57;33.73;;;16.70;;
3293;SDS011;1659;51.470;6.770;2022-08-01T02:28:29;26.17;;;14.90;;
3293;SDS011;1659;51.470;6.770;2022-08-01T02:31:00;29.17;;;15.60;;
3293;SDS011;1659;51.470;6.770;2022-08-01T02:33:29;30.77;;;15.70;;
3293;SDS011;1659;51.470;6.770;2022-08-01T02:36:02;31.73;;;15.97;;
3293;SDS011;1659;51.470;6.770;2022-08-01T02:38:31;31.43;;;16.53;;
3293;SDS011;1659;51.470;6.770;2022-08-01T02:41:02;37.73;;;17.43;;
3293;SDS011;1659;51.470;6.770;2022-08-01T02:43:33;27.40;;;16.00;;
3293;SDS011;1659;51.470;6.770;2022-08-01T02:46:02;35.60;;;16.50;;
3293;SDS011;1659;51.470;6.770;2022-08-01T02:48:30;34.47;;;16.70;;
3293;SDS011;1659;51.470;6.770;2022-08-01T02:51:01;28.23;;;15.93;;
3293;SDS011;1659;51.470;6.770;2022-08-01T02:53:31;29.17;;;16.80;;
3293;SDS011;1659;51.470;6.770;2022-08-01T02:56:02;31.40;;;17.80;;
3293;SDS011;1659;51.470;6.770;2022-08-01T02:58:30;36.00;;;19.37;;
3293;SDS011;1659;51.470;6.770;2022-08-01T03:00:59;35.80;;;17.90;;
3293;SDS011;1659;51.470;6.770;2022-08-01T03:03:27;30.40;;;16.30;;
3293;SDS011;1659;51.470;6.770;2022-08-01T03:05:55;36.83;;;18.73;;
3293;SDS011;1659;51.470;6.770;2022-08-01T03:08:25;34.13;;;18.03;;
3293;SDS011;1659;51.470;6.770;2022-08-01T03:10:53;47.30;;;19.80;;
3293;SDS011;1659;51.470;6.770;2022-08-01T03:13:21;39.53;;;18.93;;
3293;SDS011;1659;51.470;6.770;2022-08-01T03:15:49;40.90;;;18.90;;
3293;SDS011;1659;51.470;6.770;2022-08-01T03:18:18;35.57;;;19.33;;
3293;SDS011;1659;51.470;6.770;2022-08-01T03:20:45;36.67;;;18.47;;
3293;SDS011;1659;51.470;6.770;2022-08-01T03:23:12;33.50;;;18.20;;
3293;SDS011;1659;51.470;6.770;2022-08-01T03:25:43;35.03;;;18.60;;
3293;SDS011;1659;51.470;6.770;2022-08-01T03:28:12;33.73;;;17.20;;
3293;SDS011;1659;51.470;6.770;2022-08-01T03:30:42;38.07;;;18.50;;
3293;SDS011;1659;51.470;6.770;2022-08-01T03:33:10;33.60;;;18.07;;
3293;SDS011;1659;51.470;6.770;2022-08-01T03:35:37;31.27;;;18.23;;
3293;SDS011;1659;51.470;6.770;2022-08-01T03:38:08;29.70;;;17.70;;
3293;SDS011;1659;51.470;6.770;2022-08-01T03:40:38;37.90;;;18.20;;
3293;SDS011;1659;51.470;6.770;2022-08-01T03:43:10;36.20;;;18.00;;
3293;SDS011;1659;51.470;6.770;2022-08-01T03:45:41;32.47;;;17.77;;
3293;SDS011;1659;51.470;6.770;2022-08-01T03:48:16;33.30;;;18.37;;
3293;SDS011;1659;51.470;6.770;2022-08-01T03:50:45;31.53;;;18.37;;
3293;SDS011;1659;51.470;6.770;2022-08-01T03:53:14;42.27;;;19.47;;
3293;SDS011;1659;51.470;6.770;2022-08-01T03:55:42;38.67;;;20.23;;
3293;SDS011;1659;51.470;6.770;2022-08-01T03:58:11;33.40;;;17.97;;
3293;SDS011;1659;51.470;6.770;2022-08-01T04:00:39;36.70;;;18.60;;
3293;SDS011;1659;51.470;6.770;2022-08-01T04:03:06;32.23;;;17.63;;
3293;SDS011;1659;51.470;6.770;2022-08-01T04:05:36;37.13;;;18.37;;
3293;SDS011;1659;51.470;6.770;2022-08-01T04:08:03;34.07;;;18.00;;
3293;SDS011;1659;51.470;6.770;2022-08-01T04:10:30;34.17;;;18.40;;
3293;SDS011;1659;51.470;6.770;2022-08-01T04:12:56;30.60;;;16.60;;
3293;SDS011;1659;51.470;6.770;2022-08-01T04:15:24;38.73;;;20.10;;
3293;SDS011;1659;51.470;6.770;2022-08-01T04:17:51;30.50;;;17.20;;
3293;SDS011;1659;51.470;6.770;2022-08-01T04:20:19;34.77;;;17.87;;
3293;SDS011;1659;51.470;6.770;2022-08-01T04:22:45;31.77;;;17.67;;
3293;SDS011;1659;51.470;6.770;2022-08-01T04:25:14;31.60;;;17.60;;
3293;SDS011;1659;51.470;6.770;2022-08-01T04:27:44;32.17;;;17.70;;
3293;SDS011;1659;51.470;6.770;2022-08-01T04:30:14;36.53;;;19.87;;
3293;SDS011;1659;51.470;6.770;2022-08-01T04:32:44;44.23;;;23.53;;
3293;SDS011;1659;51.470;6.770;2022-08-01T04:35:12;52.47;;;27.87;;
3293;SDS011;1659;51.470;6.770;2022-08-01T04:37:42;35.83;;;18.70;;
3293;SDS011;1659;51.470;6.770;2022-08-01T04:40:11;34.20;;;17.73;;
3293;SDS011;1659;51.470;6.770;2022-08-01T04:42:39;223.10;;;98.07;;
3293;SDS011;1659;51.470;6.770;2022-08-01T04:45:06;38.50;;;22.07;;
3293;SDS011;1659;51.470;6.770;2022-08-01T04:47:34;54.03;;;29.83;;
3293;SDS011;1659;51.470;6.770;2022-08-01T04:50:05;33.90;;;19.10;;
3293;SDS011;1659;51.470;6.770;2022-08-01T04:52:33;39.40;;;20.20;;
3293;SDS011;1659;51.470;6.770;2022-08-01T04:55:00;37.90;;;17.50;;
3293;SDS011;1659;51.470;6.770;2022-08-01T04:57:27;33.57;;;17.80;;
3293;SDS011;1659;51.470;6.770;2022-08-01T04:59:53;36.37;;;17.67;;
3293;SDS011;1659;51.470;6.770;2022-08-01T05:02:22;29.27;;;16.07;;
3293;SDS011;1659;51.470;6.770;2022-08-01T05:04:52;27.10;;;16.73;;
3293;SDS011;1659;51.470;6.770;2022-08-01T05:07:21;28.97;;;15.37;;
3293;SDS011;1659;51.470;6.770;2022-08-01T05:09:48;29.70;;;14.43;;
3293;SDS011;1659;51.470;6.770;2022-08-01T05:12:15;36.17;;;15.50;;
3293;SDS011;1659;51.470;6.770;2022-08-01T05:14:42;28.40;;;14.80;;
3293;SDS011;1659;51.470;6.770;2022-08-01T05:17:09;23.60;;;14.03;;
3293;SDS011;1659;51.470;6.770;2022-08-01T05:19:37;28.90;;;15.50;;
3293;SDS011;1659;51.470;6.770;2022-08-01T05:22:05;25.70;;;14.30;;
3293;SDS011;1659;51.470;6.770;2022-08-01T05:24:34;27.77;;;15.03;;
3293;SDS011;1659;51.470;6.770;2022-08-01T05:27:03;17.30;;;11.90;;
3293;SDS011;1659;51.470;6.770;2022-08-01T05:29:31;23.67;;;14.43;;
3293;SDS011;1659;51.470;6.770;2022-08-01T05:31:58;28.33;;;15.50;;
3293;SDS011;1659;51.470;6.770;2022-08-01T05:34:25;29.90;;;15.17;;
3293;SDS011;1659;51.470;6.770;2022-08-01T05:36:52;26.23;;;13.30;;
3293;SDS011;1659;51.470;6.770;2022-08-01T05:39:19;22.47;;;13.00;;
3293;SDS011;1659;51.470;6.770;2022-08-01T05:41:46;22.07;;;12.47;;
3293;SDS011;1659;51.470;6.770;2022-08-01T05:44:13;18.53;;;12.67;;
3293;SDS011;1659;51.470;6.770;2022-08-01T05:46:40;20.80;;;13.00;;
3293;SDS011;1659;51.470;6.770;2022-08-01T05:49:07;18.13;;;10.37;;
3293;SDS011;1659;51.470;6.770;2022-08-01T05:51:34;21.90;;;10.77;;
3293;SDS011;1659;51.470;6.770;2022-08-01T05:54:00;16.30;;;9.30;;
3293;SDS011;1659;51.470;6.770;2022-08-01T05:56:27;17.27;;;9.97;;
3293;SDS011;1659;51.470;6.770;2022-08-01T05:58:55;15.87;;;9.50;;
3293;SDS011;1659;51.470;6.770;2022-08-01T06:01:22;21.07;;;10.73;;
3293;SDS011;1659;51.470;6.770;2022-08-01T06:03:48;15.50;;;9.17;;
3293;SDS011;1659;51.470;6.770;2022-08-01T06:06:15;15.53;;;9.60;;
3293;SDS011;1659;51.470;6.770;2022-08-01T06:08:41;15.57;;;10.53;;
3293;SDS011;1659;51.470;6.770;2022-08-01T06:11:08;18.50;;;9.90;;
3293;SDS011;1659;51.470;6.770;2022-08-01T06:13:35;18.70;;;10.90;;
3293;SDS011;1659;51.470;6.770;2022-08-01T06:16:03;18.47;;;11.27;;
3293;SDS011;1659;51.470;6.770;2022-08-01T06:18:30;20.20;;;10.83;;
3293;SDS011;1659;51.470;6.770;2022-08-01T06:20:56;43.10;;;25.43;;
3293;SDS011;1659;51.470;6.770;2022-08-01T06:23:23;31.27;;;17.93;;
3293;SDS011;1659;51.470;6.770;2022-08-01T06:25:51;22.43;;;11.43;;
3293;SDS011;1659;51.470;6.770;2022-08-01T06:28:19;18.17;;;10.80;;
3293;SDS011;1659;51.470;6.770;2022-08-01T06:30:46;16.40;;;10.30;;
3293;SDS011;1659;51.470;6.770;2022-08-01T06:33:13;16.43;;;9.67;;
3293;SDS011;1659;51.470;6.770;2022-08-01T06:35:41;16.97;;;10.37;;
3293;SDS011;1659;51.470;6.770;2022-08-01T06:38:07;13.97;;;7.97;;
3293;SDS011;1659;51.470;6.770;2022-08-01T06:40:34;16.20;;;10.47;;
3293;SDS011;1659;51.470;6.770;2022-08-01T06:43:01;11.53;;;8.40;;
3293;SDS011;1659;51.470;6.770;2022-08-01T06:45:27;11.87;;;7.50;;
3293;SDS011;1659;51.470;6.770;2022-08-01T06:47:54;12.27;;;7.37;;
3293;SDS011;1659;51.470;6.770;2022-08-01T06:50:22;13.43;;;7.10;;
3293;SDS011;1659;51.470;6.770;2022-08-01T06:52:48;9.80;;;7.20;;
3293;SDS011;1659;51.470;6.770;2022-08-01T06:55:15;11.27;;;6.47;;
3293;SDS011;1659;51.470;6.770;2022-08-01T06:57:45;7.40;;;5.23;;
3293;SDS011;1659;51.470;6.770;2022-08-01T07:00:13;6.73;;;4.80;;
3293;SDS011;1659;51.470;6.770;2022-08-01T07:02:41;5.50;;;4.10;;
3293;SDS011;1659;51.470;6.770;2022-08-01T07:05:08;8.93;;;4.27;;
3293;SDS011;1659;51.470;6.770;2022-08-01T07:07:36;7.43;;;4.87;;
3293;SDS011;1659;51.470;6.770;2022-08-01T07:10:03;6.37;;;3.47;;
3293;SDS011;1659;51.470;6.770;2022-08-01T07:12:30;5.57;;;4.03;;
3293;SDS011;1659;51.470;6.770;2022-08-01T07:14:58;6.90;;;5.07;;
3293;SDS011;1659;51.470;6.770;2022-08-01T07:17:24;10.23;;;4.63;;
3293;SDS011;1659;51.470;6.770;2022-08-01T07:19:51;6.37;;;5.13;;
3293;SDS011;1659;51.470;6.770;2022-08-01T07:22:19;11.20;;;6.27;;
3293;SDS011;1659;51.470;6.770;2022-08-01T07:24:48;9.67;;;6.57;;
3293;SDS011;1659;51.470;6.770;2022-08-01T07:27:14;7.80;;;5.87;;
3293;SDS011;1659;51.470;6.770;2022-08-01T07:29:41;9.80;;;5.87;;
3293;SDS011;1659;51.470;6.770;2022-08-01T07:32:08;6.87;;;5.40;;
3293;SDS011;1659;51.470;6.770;2022-08-01T07:34:34;7.40;;;4.57;;
3293;SDS011;1659;51.470;6.770;2022-08-01T07:37:01;7.10;;;5.70;;
3293;SDS011;1659;51.470;6.770;2022-08-01T07:39:28;8.80;;;6.30;;
3293;SDS011;1659;51.470;6.770;2022-08-01T07:41:56;8.80;;;5.10;;
3293;SDS011;1659;51.470;6.770;2022-08-01T07:44:22;5.00;;;4.07;;
3293;SDS011;1659;51.470;6.770;2022-08-01T07:46:49;4.53;;;3.60;;
3293;SDS011;1659;51.470;6.770;2022-08-01T07:49:16;4.70;;;3.63;;
3293;SDS011;1659;51.470;6.770;2022-08-01T07:51:42;10.37;;;5.97;;
3293;SDS011;1659;51.470;6.770;2022-08-01T07:54:09;9.20;;;4.20;;
3293;SDS011;1659;51.470;6.770;2022-08-01T07:56:35;5.50;;;4.17;;
3293;SDS011;1659;51.470;6.770;2022-08-01T07:59:03;7.50;;;4.60;;
3293;SDS011;1659;51.470;6.770;2022-08-01T08:01:30;4.60;;;3.90;;
3293;SDS011;1659;51.470;6.770;2022-08-01T08:03:56;5.33;;;4.30;;
3293;SDS011;1659;51.470;6.770;2022-08-01T08:06:23;8.00;;;4.50;;
3293;SDS011;1659;51.470;6.770;2022-08-01T08:08:50;5.00;;;4.50;;
3293;SDS011;1659;51.470;6.770;2022-08-01T08:11:18;10.17;;;4.83;;
3293;SDS011;1659;51.470;6.770;2022-08-01T08:13:45;4.67;;;4.03;;
3293;SDS011;1659;51.470;6.770;2022-08-01T08:16:13;4.40;;;3.63;;
3293;SDS011;1659;51.470;6.770;2022-08-01T08:18:40;5.67;;;4.60;;
3293;SDS011;1659;51.470;6.770;2022-08-01T08:21:06;2.90;;;2.60;;
3293;SDS011;1659;51.470;6.770;2022-08-01T08:23:33;2.93;;;2.73;;
3293;SDS011;1659;51.470;6.770;2022-08-01T08:26:17;2.33;;;2.13;;
3293;SDS011;1659;51.470;6.770;2022-08-01T08:28:44;3.13;;;2.00;;
3293;SDS011;1659;51.470;6.770;2022-08-01T08:31:12;3.20;;;2.90;;
3293;SDS011;1659;51.470;6.770;2022-08-01T08:33:39;2.77;;;2.50;;
3293;SDS011;1659;51.470;6.770;2022-08-01T08:36:05;2.40;;;2.20;;
3293;SDS011;1659;51.470;6.770;2022-08-01T08:38:32;2.97;;;2.57;;
3293;SDS011;1659;51.470;6.770;2022-08-01T08:40:59;2.97;;;2.30;;
3293;SDS011;1659;51.470;6.770;2022-08-01T08:43:25;2.93;;;2.63;;
3293;SDS011;1659;51.470;6.770;2022-08-01T08:45:52;2.67;;;2.43;;
3293;SDS011;1659;51.470;6.770;2022-08-01T08:48:21;3.07;;;2.53;;
3293;SDS011;1659;51.470;6.770;2022-08-01T08:50:48;2.90;;;2.50;;
3293;SDS011;1659;51.470;6.770;2022-08-01T08:53:17;3.13;;;2.90;;
3293;SDS011;1659;51.470;6.770;2022-08-01T08:55:44;3.07;;;2.50;;
3293;SDS011;1659;51.470;6.770;2022-08-01T08:58:12;2.43;;;2.23;;
3293;SDS011;1659;51.470;6.770;2022-08-01T09:00:40;4.47;;;2.60;;
3293;SDS011;1659;51.470;6.770;2022-08-01T09:03:07;3.43;;;2.90;;
3293;SDS011;1659;51.470;6.770;2022-08-01T09:05:35;5.70;;;3.27;;
3293;SDS011;1659;51.470;6.770;2022-08-01T09:08:05;2.90;;;2.57;;
3293;SDS011;1659;51.470;6.770;2022-08-01T09:10:32;2.10;;;1.73;;
3293;SDS011;1659;51.470;6.770;2022-08-01T09:13:06;1.80;;;1.70;;
3293;SDS011;1659;51.470;6.770;2022-08-01T09:15:39;2.40;;;2.20;;
3293;SDS011;1659;51.470;6.770;2022-08-01T09:18:08;2.23;;;2.10;;
3293;SDS011;1659;51.470;6.770;2022-08-01T09:20:36;3.90;;;2.50;;
3293;SDS011;1659;51.470;6.770;2022-08-01T09:23:03;3.27;;;2.97;;
3293;SDS011;1659;51.470;6.770;2022-08-01T09:25:29;4.00;;;3.40;;
3293;SDS011;1659;51.470;6.770;2022-08-01T09:28:02;4.57;;;2.80;;
3293;SDS011;1659;51.470;6.770;2022-08-01T09:30:31;4.70;;;3.50;;
3293;SDS011;1659;51.470;6.770;2022-08-01T09:33:04;3.30;;;3.00;;
3293;SDS011;1659;51.470;6.770;2022-08-01T09:35:31;4.33;;;3.03;;
3293;SDS011;1659;51.470;6.770;2022-08-01T09:38:15;2.90;;;2.70;;
3293;SDS011;1659;51.470;6.770;2022-08-01T09:40:50;1.97;;;1.83;;
3293;SDS011;1659;51.470;6.770;2022-08-01T09:43:19;2.30;;;2.20;;
3293;SDS011;1659;51.470;6.770;2022-08-01T09:45:46;2.67;;;2.47;;
3293;SDS011;1659;51.470;6.770;2022-08-01T09:48:13;4.20;;;3.00;;
3293;SDS011;1659;51.470;6.770;2022-08-01T09:50:41;4.53;;;3.20;;
3293;SDS011;1659;51.470;6.770;2022-08-01T09:53:08;2.00;;;1.90;;
3293;SDS011;1659;51.470;6.770;2022-08-01T09:55:36;5.30;;;2.17;;
3293;SDS011;1659;51.470;6.770;2022-08-01T09:58:04;2.73;;;2.20;;
3293;SDS011;1659;51.470;6.770;2022-08-01T10:00:31;2.30;;;2.20;;
3293;SDS011;1659;51.470;6.770;2022-08-01T10:02:58;5.77;;;2.30;;
3293;SDS011;1659;51.470;6.770;2022-08-01T10:05:32;2.83;;;2.60;;
3293;SDS011;1659;51.470;6.770;2022-08-01T10:08:01;4.20;;;2.60;;
3293;SDS011;1659;51.470;6.770;2022-08-01T10:10:30;3.30;;;2.80;;
3293;SDS011;1659;51.470;6.770;2022-08-01T10:12:59;3.13;;;2.83;;
3293;SDS011;1659;51.470;6.770;2022-08-01T10:15:26;2.97;;;2.77;;
3293;SDS011;1659;51.470;6.770;2022-08-01T10:17:54;2.53;;;2.33;;
3293;SDS011;1659;51.470;6.770;2022-08-01T10:20:23;4.90;;;2.67;;
3293;SDS011;1659;51.470;6.770;2022-08-01T10:22:52;6.13;;;3.20;;
3293;SDS011;1659;51.470;6.770;2022-08-01T10:25:21;3.70;;;2.93;;
3293;SDS011;1659;51.470;6.770;2022-08-01T10:27:48;7.47;;;4.50;;
3293;SDS011;1659;51.470;6.770;2022-08-01T10:30:21;3.80;;;2.63;;
3293;SDS011;1659;51.470;6.770;2022-08-01T10:32:48;2.90;;;2.70;;
3293;SDS011;1659;51.470;6.770;2022-08-01T10:35:17;4.43;;;3.20;;
3293;SDS011;1659;51.470;6.770;2022-08-01T10:37:44;3.30;;;3.10;;
3293;SDS011;1659;51.470;6.770;2022-08-01T10:40:12;4.53;;;3.20;;
3293;SDS011;1659;51.470;6.770;2022-08-01T10:42:39;2.73;;;2.53;;
3293;SDS011;1659;51.470;6.770;2022-08-01T10:45:08;1.90;;;1.80;;
3293;SDS011;1659;51.470;6.770;2022-08-01T10:47:38;1.27;;;1.27;;
3293;SDS011;1659;51.470;6.770;2022-08-01T10:50:11;1.30;;;1.20;;
3293;SDS011;1659;51.470;6.770;2022-08-01T10:55:46;1.10;;;1.10;;
3293;SDS011;1659;51.470;6.770;2022-08-01T10:58:19;2.33;;;1.43;;
3293;SDS011;1659;51.470;6.770;2022-08-01T11:00:47;2.13;;;2.03;;
3293;SDS011;1659;51.470;6.770;2022-08-01T11:03:15;2.93;;;1.83;;
3293;SDS011;1659;51.470;6.770;2022-08-01T11:06:00;1.70;;;1.60;;
3293;SDS011;1659;51.470;6.770;2022-08-01T11:08:29;1.20;;;1.20;;
3293;SDS011;1659;51.470;6.770;2022-08-01T11:11:00;5.73;;;1.50;;
3293;SDS011;1659;51.470;6.770;2022-08-01T11:16:32;1.47;;;1.37;;
3293;SDS011;1659;51.470;6.770;2022-08-01T11:19:01;2.03;;;1.60;;
3293;SDS011;1659;51.470;6.770;2022-08-01T11:27:23;3.03;;;1.80;;
3293;SDS011;1659;51.470;6.770;2022-08-01T11:32:50;1.00;;;1.00;;
3293;SDS011;1659;51.470;6.770;2022-08-01T11:35:20;1.47;;;1.37;;
3293;SDS011;1659;51.470;6.770;2022-08-01T11:37:48;2.27;;;1.40;;
3293;SDS011;1659;51.470;6.770;2022-08-01T11:40:19;1.93;;;1.83;;
3293;SDS011;1659;51.470;6.770;2022-08-01T11:42:47;1.50;;;1.40;;
3293;SDS011;1659;51.470;6.770;2022-08-01T11:45:14;1.43;;;1.33;;
3293;SDS011;1659;51.470;6.770;2022-08-01T11:47:44;1.60;;;1.50;;
3293;SDS011;1659;51.470;6.770;2022-08-01T11:50:30;1.40;;;1.30;;
3293;SDS011;1659;51.470;6.770;2022-08-01T11:52:58;1.17;;;1.07;;
3293;SDS011;1659;51.470;6.770;2022-08-01T11:55:26;1.20;;;1.20;;
3293;SDS011;1659;51.470;6.770;2022-08-01T11:57:58;1.30;;;1.30;;
3293;SDS011;1659;51.470;6.770;2022-08-01T12:00:26;1.50;;;1.40;;
3293;SDS011;1659;51.470;6.770;2022-08-01T12:02:56;1.67;;;1.57;;
3293;SDS011;1659;51.470;6.770;2022-08-01T12:05:24;3.33;;;2.07;;
3293;SDS011;1659;51.470;6.770;2022-08-01T12:07:53;1.80;;;1.70;;
3293;SDS011;1659;51.470;6.770;2022-08-01T12:10:21;3.00;;;2.03;;
3293;SDS011;1659;51.470;6.770;2022-08-01T12:12:49;3.53;;;2.17;;
3293;SDS011;1659;51.470;6.770;2022-08-01T12:15:17;1.20;;;1.20;;
3293;SDS011;1659;51.470;6.770;2022-08-01T12:17:46;1.70;;;1.53;;
3293;SDS011;1659;51.470;6.770;2022-08-01T12:20:14;1.63;;;1.53;;
3293;SDS011;1659;51.470;6.770;2022-08-01T12:22:45;4.63;;;2.60;;
3293;SDS011;1659;51.470;6.770;2022-08-01T12:25:14;4.97;;;3.37;;
3293;SDS011;1659;51.470;6.770;2022-08-01T12:27:43;2.70;;;2.30;;
3293;SDS011;1659;51.470;6.770;2022-08-01T12:30:13;3.50;;;1.70;;
3293;SDS011;1659;51.470;6.770;2022-08-01T12:32:41;1.90;;;1.80;;
3293;SDS011;1659;51.470;6.770;2022-08-01T12:35:08;1.67;;;1.60;;
3293;SDS011;1659;51.470;6.770;2022-08-01T12:37:37;3.10;;;1.40;;
3293;SDS011;1659;51.470;6.770;2022-08-01T12:40:11;2.73;;;1.90;;
3293;SDS011;1659;51.470;6.770;2022-08-01T12:42:41;1.63;;;1.53;;
3293;SDS011;1659;51.470;6.770;2022-08-01T12:45:10;1.43;;;1.43;;
3293;SDS011;1659;51.470;6.770;2022-08-01T12:47:39;1.20;;;1.20;;
3293;SDS011;1659;51.470;6.770;2022-08-01T12:50:06;1.73;;;1.63;;
3293;SDS011;1659;51.470;6.770;2022-08-01T12:52:36;1.53;;;1.43;;
3293;SDS011;1659;51.470;6.770;2022-08-01T12:55:04;1.60;;;1.50;;
3293;SDS011;1659;51.470;6.770;2022-08-01T12:57:36;2.00;;;1.60;;
3293;SDS011;1659;51.470;6.770;2022-08-01T13:00:08;2.27;;;2.07;;
3293;SDS011;1659;51.470;6.770;2022-08-01T13:02:38;2.10;;;1.90;;
3293;SDS011;1659;51.470;6.770;2022-08-01T13:05:05;2.10;;;1.40;;
3293;SDS011;1659;51.470;6.770;2022-08-01T13:07:44;1.77;;;1.70;;
3293;SDS011;1659;51.470;6.770;2022-08-01T13:10:12;1.73;;;1.63;;
3293;SDS011;1659;51.470;6.770;2022-08-01T13:12:51;2.00;;;1.90;;
3293;SDS011;1659;51.470;6.770;2022-08-01T13:15:20;2.13;;;1.90;;
3293;SDS011;1659;51.470;6.770;2022-08-01T13:17:49;2.20;;;2.10;;
3293;SDS011;1659;51.470;6.770;2022-08-01T13:20:22;2.23;;;2.00;;
3293;SDS011;1659;51.470;6.770;2022-08-01T13:22:54;3.10;;;2.90;;
3293;SDS011;1659;51.470;6.770;2022-08-01T13:25:21;4.60;;;2.40;;
3293;SDS011;1659;51.470;6.770;2022-08-01T13:27:49;1.77;;;1.67;;
3293;SDS011;1659;51.470;6.770;2022-08-01T13:30:50;2.50;;;2.30;;
3293;SDS011;1659;51.470;6.770;2022-08-01T13:33:18;2.07;;;1.97;;
3293;SDS011;1659;51.470;6.770;2022-08-01T13:35:44;1.70;;;1.60;;
3293;SDS011;1659;51.470;6.770;2022-08-01T13:38:12;2.30;;;1.90;;
3293;SDS011;1659;51.470;6.770;2022-08-01T13:40:39;2.37;;;2.17;;
3293;SDS011;1659;51.470;6.770;2022-08-01T13:43:07;2.50;;;2.07;;
3293;SDS011;1659;51.470;6.770;2022-08-01T13:45:33;2.50;;;2.30;;
3293;SDS011;1659;51.470;6.770;2022-08-01T13:48:00;2.20;;;2.10;;
3293;SDS011;1659;51.470;6.770;2022-08-01T13:50:27;3.00;;;2.80;;
3293;SDS011;1659;51.470;6.770;2022-08-01T13:52:54;5.63;;;2.70;;
3293;SDS011;1659;51.470;6.770;2022-08-01T13:55:20;3.00;;;2.70;;
3293;SDS011;1659;51.470;6.770;2022-08-01T13:57:47;4.43;;;2.70;;
3293;SDS011;1659;51.470;6.770;2022-08-01T14:00:15;2.30;;;2.20;;
3293;SDS011;1659;51.470;6.770;2022-08-01T14:02:42;2.63;;;2.53;;
3293;SDS011;1659;51.470;6.770;2022-08-01T14:05:08;4.67;;;2.37;;
3293;SDS011;1659;51.470;6.770;2022-08-01T14:07:36;2.50;;;2.40;;
3293;SDS011;1659;51.470;6.770;2022-08-01T14:10:02;2.30;;;2.03;;
3293;SDS011;1659;51.470;6.770;2022-08-01T14:12:30;2.60;;;2.40;;
3293;SDS011;1659;51.470;6.770;2022-08-01T14:14:56;2.90;;;2.70;;
3293;SDS011;1659;51.470;6.770;2022-08-01T14:17:24;2.70;;;2.43;;
3293;SDS011;1659;51.470;6.770;2022-08-01T14:19:51;2.80;;;2.40;;
3293;SDS011;1659;51.470;6.770;2022-08-01T14:22:17;2.80;;;2.60;;
3293;SDS011;1659;51.470;6.770;2022-08-01T14:24:44;3.67;;;2.43;;
3293;SDS011;1659;51.470;6.770;2022-08-01T14:27:11;2.83;;;2.40;;
3293;SDS011;1659;51.470;6.770;2022-08-01T14:29:37;2.17;;;2.07;;
3293;SDS011;1659;51.470;6.770;2022-08-01T14:32:04;2.57;;;2.37;;
3293;SDS011;1659;51.470;6.770;2022-08-01T14:34:32;4.87;;;3.13;;
3293;SDS011;1659;51.470;6.770;2022-08-01T14:36:58;4.70;;;2.90;;
3293;SDS011;1659;51.470;6.770;2022-08-01T14:39:25;4.40;;;3.00;;
3293;SDS011;1659;51.470;6.770;2022-08-01T14:41:52;2.93;;;2.73;;
3293;SDS011;1659;51.470;6.770;2022-08-01T14:44:18;3.20;;;2.87;;
3293;SDS011;1659;51.470;6.770;2022-08-01T14:46:45;3.30;;;3.00;;
3293;SDS011;1659;51.470;6.770;2022-08-01T14:49:13;2.70;;;2.50;;
3293;SDS011;1659;51.470;6.770;2022-08-01T14:51:41;4.57;;;2.67;;
3293;SDS011;1659;51.470;6.770;2022-08-01T14:54:07;3.13;;;2.83;;
3293;SDS011;1659;51.470;6.770;2022-08-01T14:56:34;2.93;;;2.73;;
3293;SDS011;1659;51.470;6.770;2022-08-01T14:59:00;2.03;;;1.93;;
3293;SDS011;1659;51.470;6.770;2022-08-01T15:01:27;3.00;;;2.70;;
3293;SDS011;1659;51.470;6.770;2022-08-01T15:03:54;2.60;;;2.40;;
3293;SDS011;1659;51.470;6.770;2022-08-01T15:06:20;4.47;;;2.37;;
3293;SDS011;1659;51.470;6.770;2022-08-01T15:08:48;2.67;;;2.47;;
3293;SDS011;1659;51.470;6.770;2022-08-01T15:11:15;2.10;;;2.00;;
3293;SDS011;1659;51.470;6.770;2022-08-01T15:13:42;2.23;;;1.50;;
3293;SDS011;1659;51.470;6.770;2022-08-01T15:16:09;2.10;;;2.00;;
3293;SDS011;1659;51.470;6.770;2022-08-01T15:18:35;2.40;;;2.20;;
3293;SDS011;1659;51.470;6.770;2022-08-01T15:21:02;2.00;;;1.90;;
3293;SDS011;1659;51.470;6.770;2022-08-01T15:23:28;3.80;;;2.03;;
3293;SDS011;1659;51.470;6.770;2022-08-01T15:25:56;1.47;;;1.40;;